Time;durP1;ratioP1;P1;durP2;ratioP2;P2;SDS_P1;SDS_P2;PMS_P1;PMS_P2;Temp;Humidity;BMP_temperature;BMP_pressure;BME280_temperature;BME280_humidity;BME280_pressure;Samples;Min_cycle;Max_cycle;Signal;HPM_P1;HPM_P2
2023/01/30 00:00:56;;;;;;;37.13;22.67;;;6.40;97.20;;;;;;5052573;28;20037;-78
2023/01/30 00:03:23;;;;;;;39.40;22.48;;;6.40;97.10;;;;;;5038929;28;20040;-79
2023/01/30 00:05:48;;;;;;;37.25;21.73;;;6.40;97.20;;;;;;5057914;28;20037;-79
2023/01/30 00:08:15;;;;;;;41.25;23.77;;;6.40;97.40;;;;;;5060024;28;20181;-78
2023/01/30 00:10:40;;;;;;;35.08;22.45;;;6.40;97.10;;;;;;5060308;28;20133;-80
2023/01/30 00:13:06;;;;;;;38.80;22.45;;;6.40;97.20;;;;;;5043131;28;20054;-81
2023/01/30 00:15:31;;;;;;;35.03;21.42;;;6.40;97.20;;;;;;5061036;28;20044;-80
2023/01/30 00:17:57;;;;;;;33.97;20.17;;;6.40;97.20;;;;;;5062737;28;20036;-81
2023/01/30 00:20:23;;;;;;;36.55;20.40;;;6.40;97.20;;;;;;5058320;28;20174;-79
2023/01/30 00:22:48;;;;;;;33.50;19.95;;;6.40;97.10;;;;;;5040804;28;20056;-79
2023/01/30 00:25:14;;;;;;;28.20;19.23;;;6.50;97.10;;;;;;5043717;28;20036;-81
2023/01/30 00:27:40;;;;;;;34.67;19.02;;;6.50;97.10;;;;;;5054647;28;20044;-80
2023/01/30 00:30:06;;;;;;;34.42;19.15;;;6.60;97.10;;;;;;5042020;28;20123;-84
2023/01/30 00:32:32;;;;;;;27.33;17.23;;;6.60;97.00;;;;;;5073150;28;20044;-80
2023/01/30 00:34:58;;;;;;;32.00;17.70;;;6.60;96.90;;;;;;5069095;28;20127;-80
2023/01/30 00:37:24;;;;;;;30.90;17.63;;;6.60;96.90;;;;;;5040003;28;20109;-79
2023/01/30 00:39:49;;;;;;;29.00;16.13;;;6.70;96.90;;;;;;5037841;28;20855;-79
2023/01/30 00:47:47;;;;;;;30.10;15.20;;;6.80;96.80;;;;;;5035454;28;20044;-82
2023/01/30 00:50:13;;;;;;;23.27;13.07;;;6.80;96.80;;;;;;5047951;28;20110;-80
2023/01/30 00:52:38;;;;;;;25.27;13.30;;;6.80;96.70;;;;;;5041134;28;20841;-81
2023/01/30 00:55:04;;;;;;;24.00;12.85;;;6.90;96.70;;;;;;5037634;28;20079;-81
2023/01/30 00:57:30;;;;;;;31.10;14.75;;;6.90;96.70;;;;;;5055478;28;20040;-79
2023/01/30 00:59:56;;;;;;;29.02;14.80;;;6.90;96.70;;;;;;5052919;28;20502;-80
2023/01/30 01:02:21;;;;;;;32.15;15.98;;;6.90;96.80;;;;;;5054744;28;20467;-79
2023/01/30 01:04:47;;;;;;;27.30;13.35;;;6.90;96.90;;;;;;5049917;28;20053;-79
2023/01/30 01:07:14;;;;;;;24.65;14.38;;;6.90;97.10;;;;;;5055846;28;20032;-80
2023/01/30 01:09:40;;;;;;;26.23;13.93;;;6.80;97.30;;;;;;5042240;28;20113;-79
2023/01/30 01:12:06;;;;;;;24.33;13.30;;;6.80;97.60;;;;;;5037334;28;20036;-80
2023/01/30 01:14:32;;;;;;;28.95;13.18;;;6.80;97.70;;;;;;5060735;28;20071;-80
2023/01/30 01:16:58;;;;;;;33.15;15.35;;;6.70;97.90;;;;;;5048988;28;20059;-79
2023/01/30 01:19:24;;;;;;;29.55;13.68;;;6.70;98.10;;;;;;5060048;28;20052;-78
2023/01/30 01:21:49;;;;;;;33.85;14.75;;;6.70;98.20;;;;;;5033063;28;20364;-80
2023/01/30 01:24:16;;;;;;;34.67;14.57;;;6.70;98.40;;;;;;5038323;28;20044;-80
2023/01/30 01:26:42;;;;;;;58.28;16.83;;;6.60;98.50;;;;;;5025528;28;20583;-79
2023/01/30 01:29:12;;;;;;;37.17;14.75;;;6.60;98.60;;;;;;5035030;28;20035;-79
2023/01/30 01:31:37;;;;;;;34.30;16.25;;;6.60;98.80;;;;;;5026156;28;20048;-79
2023/01/30 01:34:03;;;;;;;30.85;15.35;;;6.50;99.00;;;;;;5036007;28;20067;-80
2023/01/30 01:36:28;;;;;;;32.55;14.80;;;6.50;99.00;;;;;;5013968;28;20056;-82
2023/01/30 01:38:54;;;;;;;27.00;12.32;;;6.50;99.10;;;;;;5043928;28;20036;-80
2023/01/30 01:41:20;;;;;;;21.85;13.35;;;6.50;99.30;;;;;;5018373;28;20173;-79
2023/01/30 01:44:05;;;;;;;28.55;13.23;;;6.50;99.30;;;;;;5050886;28;20052;-79
2023/01/30 01:46:37;;;;;;;32.00;11.75;;;6.40;99.40;;;;;;5043921;28;20593;-79
2023/01/30 01:49:12;;;;;;;39.90;11.20;;;6.40;99.40;;;;;;5040206;28;20052;-80
2023/01/30 01:51:45;;;;;;;21.85;11.55;;;6.50;99.40;;;;;;5023965;28;20143;-81
2023/01/30 01:54:24;;;;;;;26.17;13.07;;;6.50;99.50;;;;;;5057809;28;20071;-80
2023/01/30 01:56:50;;;;;;;21.67;10.40;;;6.40;99.50;;;;;;5050792;28;20052;-79
2023/01/30 01:59:24;;;;;;;23.00;11.10;;;6.40;99.70;;;;;;5053225;28;20056;-80
2023/01/30 02:01:55;;;;;;;23.45;10.50;;;6.40;99.60;;;;;;5048950;28;20533;-79
2023/01/30 02:05:00;;;;;;;27.35;10.35;;;6.50;99.70;;;;;;5031079;28;20037;-82
2023/01/30 02:07:10;;;;;;;18.27;8.57;;;6.40;99.70;;;;;;5043267;28;20094;-78
2023/01/30 02:09:36;;;;;;;44.80;9.98;;;6.50;99.80;;;;;;5029172;28;20135;-80
2023/01/30 02:12:04;;;;;;;14.52;7.28;;;6.50;99.80;;;;;;5056391;28;20919;-78
2023/01/30 02:14:33;;;;;;;18.83;9.80;;;6.50;99.70;;;;;;5039030;28;20052;-84
2023/01/30 02:16:59;;;;;;;31.98;8.73;;;6.50;99.70;;;;;;5046327;28;20419;-78
2023/01/30 02:19:36;;;;;;;16.45;8.75;;;6.50;99.80;;;;;;5056479;28;20512;-83
2023/01/30 02:22:26;;;;;;;20.25;9.02;;;6.50;99.80;;;;;;5051071;28;20102;-83
2023/01/30 02:25:40;;;;;;;21.95;9.23;;;6.50;99.80;;;;;;5045536;28;20049;-77
2023/01/30 02:28:32;;;;;;;22.42;10.18;;;6.50;99.80;;;;;;5053642;28;20041;-79
2023/01/30 02:31:19;;;;;;;20.15;8.45;;;6.50;99.90;;;;;;5051209;28;20037;-79
2023/01/30 02:34:13;;;;;;;33.10;8.80;;;6.50;99.90;;;;;;5057525;28;20424;-78
2023/01/30 02:36:53;;;;;;;24.55;8.05;;;6.60;99.90;;;;;;5051949;28;20451;-79
2023/01/30 02:39:49;;;;;;;20.52;7.88;;;6.60;99.90;;;;;;5022565;28;22024;-78
2023/01/30 02:42:24;;;;;;;20.52;8.60;;;6.60;99.90;;;;;;5033534;28;20048;-78
2023/01/30 02:45:06;;;;;;;22.95;8.15;;;6.60;99.90;;;;;;5052567;28;20040;-79
2023/01/30 02:47:45;;;;;;;21.20;8.25;;;6.60;99.90;;;;;;5050965;28;20052;-79
2023/01/30 02:50:31;;;;;;;21.83;7.57;;;6.70;99.90;;;;;;5048715;28;20036;-80
2023/01/30 02:52:57;;;;;;;22.10;7.90;;;6.70;99.90;;;;;;5056507;28;20044;-79
2023/01/30 02:55:26;;;;;;;22.85;7.80;;;6.70;99.90;;;;;;5051326;28;20689;-81
2023/01/30 02:57:52;;;;;;;27.83;8.65;;;6.70;99.90;;;;;;5052299;28;20049;-79
2023/01/30 03:00:23;;;;;;;22.50;8.00;;;6.70;99.90;;;;;;5058790;28;20057;-81
2023/01/30 03:03:30;;;;;;;23.27;7.55;;;6.80;99.90;;;;;;5044224;28;20115;-78
2023/01/30 03:07:01;;;;;;;39.13;8.35;;;6.80;99.90;;;;;;5026331;28;20037;-82
2023/01/30 03:09:45;;;;;;;27.70;6.93;;;6.80;99.90;;;;;;4942710;28;20062;-80
2023/01/30 03:12:20;;;;;;;25.23;7.18;;;6.80;99.90;;;;;;4971565;28;20047;-79
2023/01/30 03:14:55;;;;;;;29.58;7.55;;;6.90;99.90;;;;;;5012969;28;20061;-80
2023/01/30 03:17:23;;;;;;;29.25;7.32;;;6.80;99.90;;;;;;5060025;28;20037;-80
2023/01/30 03:19:50;;;;;;;27.23;7.03;;;6.80;99.90;;;;;;5058348;28;20103;-80
2023/01/30 03:22:15;;;;;;;29.88;7.53;;;6.90;99.90;;;;;;5045986;28;20049;-82
2023/01/30 03:24:42;;;;;;;30.92;7.47;;;6.90;99.90;;;;;;5063470;28;20714;-81
2023/01/30 03:27:12;;;;;;;29.02;7.63;;;6.90;99.90;;;;;;5038379;28;20437;-83
2023/01/30 03:29:38;;;;;;;34.30;7.05;;;6.90;99.90;;;;;;5024805;28;20051;-81
2023/01/30 03:32:04;;;;;;;33.42;6.70;;;6.90;99.90;;;;;;5060948;28;20103;-79
2023/01/30 03:34:30;;;;;;;31.02;6.38;;;6.90;99.90;;;;;;5059607;28;20584;-80
2023/01/30 03:36:56;;;;;;;24.23;5.47;;;6.90;99.90;;;;;;5067261;28;20047;-80
2023/01/30 03:39:25;;;;;;;31.65;6.07;;;6.90;99.60;;;;;;5055039;28;20037;-81
2023/01/30 03:41:52;;;;;;;27.73;6.05;;;6.90;99.40;;;;;;5064382;28;20491;-82
2023/01/30 03:44:19;;;;;;;33.25;5.68;;;6.90;99.30;;;;;;5054255;28;20071;-82
2023/01/30 03:46:47;;;;;;;27.23;5.95;;;6.90;99.20;;;;;;5053087;28;20443;-79
2023/01/30 03:49:12;;;;;;;26.05;6.45;;;6.90;99.10;;;;;;5063248;28;20163;-82
2023/01/30 03:51:38;;;;;;;28.23;5.90;;;6.80;99.00;;;;;;5061239;28;20040;-80
2023/01/30 03:54:03;;;;;;;24.80;5.03;;;6.80;98.90;;;;;;5047185;28;20036;-80
2023/01/30 03:56:30;;;;;;;26.02;5.53;;;6.80;98.80;;;;;;5056858;28;20045;-79
2023/01/30 03:58:58;;;;;;;32.10;5.70;;;6.70;98.60;;;;;;5043037;28;20048;-79
2023/01/30 04:01:24;;;;;;;22.88;5.25;;;6.70;98.50;;;;;;5024849;28;20083;-79
2023/01/30 04:03:50;;;;;;;27.35;5.32;;;6.70;98.40;;;;;;5058822;28;20069;-85
2023/01/30 04:06:16;;;;;;;22.10;4.63;;;6.60;98.30;;;;;;5062507;28;20792;-80
2023/01/30 04:08:44;;;;;;;29.67;5.38;;;6.50;98.20;;;;;;5059659;28;20076;-80
2023/01/30 04:11:10;;;;;;;27.45;4.47;;;6.40;98.20;;;;;;5059768;28;20116;-83
2023/01/30 04:13:35;;;;;;;29.75;5.03;;;6.40;98.20;;;;;;5038126;28;20040;-79
2023/01/30 04:16:17;;;;;;;24.23;4.72;;;6.30;98.20;;;;;;5067541;28;20029;-79
2023/01/30 04:18:43;;;;;;;24.10;4.93;;;6.20;98.10;;;;;;5054398;28;20040;-80
2023/01/30 04:21:09;;;;;;;24.80;5.32;;;6.20;98.10;;;;;;5042960;28;20063;-79
2023/01/30 04:23:34;;;;;;;33.95;5.45;;;6.20;98.00;;;;;;5023381;28;20044;-80
2023/01/30 04:26:00;;;;;;;24.17;4.45;;;6.10;97.90;;;;;;5055157;28;20059;-79
2023/01/30 04:28:26;;;;;;;27.88;5.47;;;6.10;97.60;;;;;;5065429;28;20041;-80
2023/01/30 04:30:52;;;;;;;24.15;4.95;;;6.10;97.60;;;;;;5053863;28;20064;-80
2023/01/30 04:33:18;;;;;;;25.45;4.88;;;6.00;97.50;;;;;;5063169;28;20037;-79
2023/01/30 04:35:57;;;;;;;24.30;4.70;;;6.00;97.50;;;;;;5053059;28;20051;-79
2023/01/30 04:38:24;;;;;;;36.00;5.22;;;6.00;97.40;;;;;;5043837;28;20055;-79
2023/01/30 04:40:51;;;;;;;21.85;4.68;;;6.00;97.50;;;;;;5017432;28;20057;-80
2023/01/30 04:43:18;;;;;;;29.53;5.47;;;6.00;97.60;;;;;;5021777;28;20052;-80
2023/01/30 04:45:45;;;;;;;26.58;4.85;;;6.00;97.60;;;;;;5037091;28;20138;-79
2023/01/30 04:48:11;;;;;;;30.38;5.15;;;6.00;97.60;;;;;;5053862;28;20296;-79
2023/01/30 04:50:38;;;;;;;31.63;5.30;;;6.00;97.70;;;;;;5063836;28;20045;-81
2023/01/30 04:53:04;;;;;;;21.88;4.32;;;6.00;97.70;;;;;;5043035;28;20040;-81
2023/01/30 04:55:30;;;;;;;32.17;5.35;;;6.00;97.60;;;;;;5060378;28;20040;-79
2023/01/30 04:57:56;;;;;;;32.03;4.85;;;6.00;97.60;;;;;;5027193;28;20032;-80
2023/01/30 05:00:22;;;;;;;24.08;4.63;;;6.00;97.40;;;;;;5022140;28;20044;-81
2023/01/30 05:02:51;;;;;;;24.95;4.97;;;6.00;97.00;;;;;;5063878;28;20117;-81
2023/01/30 05:05:17;;;;;;;32.33;4.45;;;6.00;96.40;;;;;;5057467;28;20131;-80
2023/01/30 05:07:42;;;;;;;33.28;5.15;;;6.00;96.10;;;;;;5056249;28;20132;-81
2023/01/30 05:10:09;;;;;;;25.67;4.60;;;6.00;95.90;;;;;;5060390;28;20508;-79
2023/01/30 05:12:35;;;;;;;29.63;4.82;;;6.00;95.80;;;;;;5052742;28;20045;-81
2023/01/30 05:15:00;;;;;;;25.23;4.25;;;6.00;95.90;;;;;;5056191;28;20033;-79
2023/01/30 05:17:26;;;;;;;27.02;4.60;;;5.90;96.00;;;;;;5042411;28;20055;-80
2023/01/30 05:19:52;;;;;;;28.05;4.63;;;5.80;95.90;;;;;;5052742;28;20048;-81
2023/01/30 05:22:17;;;;;;;26.80;4.75;;;5.80;96.20;;;;;;5040804;28;20044;-80
2023/01/30 05:24:43;;;;;;;34.42;4.93;;;5.80;96.00;;;;;;5023542;28;20044;-80
2023/01/30 05:27:08;;;;;;;26.63;5.10;;;5.70;96.10;;;;;;5055311;28;20076;-79
2023/01/30 05:29:34;;;;;;;36.60;5.18;;;5.70;96.20;;;;;;5029762;28;20036;-79
2023/01/30 05:31:59;;;;;;;36.17;5.15;;;5.60;96.20;;;;;;5031987;28;20051;-79
2023/01/30 05:34:25;;;;;;;26.75;4.50;;;5.60;96.20;;;;;;5048455;28;20566;-80
2023/01/30 05:36:51;;;;;;;40.00;5.03;;;5.60;96.30;;;;;;5043036;28;20056;-79
2023/01/30 05:39:16;;;;;;;38.08;6.05;;;5.60;96.30;;;;;;5033587;28;20094;-80
2023/01/30 05:41:42;;;;;;;33.45;5.03;;;5.50;96.30;;;;;;5043014;28;20420;-80
2023/01/30 05:44:07;;;;;;;34.03;5.25;;;5.50;96.80;;;;;;5031772;28;20072;-82
2023/01/30 05:46:36;;;;;;;34.70;5.35;;;5.40;96.60;;;;;;5056124;28;20048;-80
2023/01/30 05:49:03;;;;;;;33.78;5.63;;;5.40;96.70;;;;;;5032880;28;20353;-80
2023/01/30 05:51:29;;;;;;;36.38;5.30;;;5.40;96.70;;;;;;5036454;28;20048;-80
2023/01/30 05:53:55;;;;;;;37.05;5.55;;;5.40;96.80;;;;;;5066208;28;20558;-79
2023/01/30 05:56:23;;;;;;;32.30;4.53;;;5.40;96.90;;;;;;5050816;28;20044;-80
2023/01/30 05:58:50;;;;;;;38.97;5.53;;;5.40;96.90;;;;;;5025179;28;20044;-79
2023/01/30 06:01:16;;;;;;;31.75;5.20;;;5.30;96.90;;;;;;5052633;28;20045;-81
2023/01/30 06:03:42;;;;;;;33.35;5.45;;;5.30;97.00;;;;;;5024257;28;20486;-80
2023/01/30 06:08:43;;;;;;;37.50;6.20;;;5.30;97.20;;;;;;5405847;22;20075;-79
2023/01/30 06:11:11;;;;;;;32.42;5.22;;;5.40;97.30;;;;;;5059399;28;20480;-80
2023/01/30 06:13:38;;;;;;;33.42;5.85;;;5.50;97.30;;;;;;5058695;28;20106;-81
2023/01/30 06:16:07;;;;;;;31.30;5.00;;;5.40;97.30;;;;;;5060714;28;20052;-81
2023/01/30 06:18:33;;;;;;;39.10;5.50;;;5.40;97.20;;;;;;5061034;28;20732;-79
2023/01/30 06:20:59;;;;;;;33.58;6.15;;;5.40;97.20;;;;;;5058749;28;20045;-80
2023/01/30 06:23:24;;;;;;;35.72;5.80;;;5.50;97.30;;;;;;5059727;28;20036;-79
2023/01/30 06:25:51;;;;;;;40.58;6.00;;;5.50;97.10;;;;;;5059867;28;21477;-80
2023/01/30 06:28:19;;;;;;;32.90;5.65;;;5.50;97.10;;;;;;5059937;28;20754;-79
2023/01/30 06:30:45;;;;;;;37.17;5.55;;;5.60;96.80;;;;;;5043572;28;20754;-79
2023/01/30 06:33:11;;;;;;;33.45;5.40;;;5.70;96.70;;;;;;5059599;28;20040;-79
2023/01/30 06:35:37;;;;;;;29.20;4.82;;;5.70;96.50;;;;;;5059855;28;20048;-79
2023/01/30 06:38:03;;;;;;;38.17;5.53;;;5.70;96.40;;;;;;5058879;28;20036;-80
2023/01/30 06:40:29;;;;;;;40.83;5.88;;;5.70;96.40;;;;;;5058114;28;20765;-79
2023/01/30 06:42:55;;;;;;;37.92;5.28;;;5.70;96.20;;;;;;5042951;28;20164;-80
2023/01/30 06:45:20;;;;;;;32.97;5.13;;;5.70;96.00;;;;;;5058025;28;20029;-80
2023/01/30 06:47:47;;;;;;;28.02;5.28;;;5.70;96.00;;;;;;5055800;28;20175;-80
2023/01/30 06:50:14;;;;;;;31.85;5.68;;;5.70;95.90;;;;;;5056562;28;20081;-81
2023/01/30 06:52:41;;;;;;;35.90;5.32;;;5.60;95.90;;;;;;5054296;28;20093;-80
2023/01/30 06:55:08;;;;;;;35.08;5.55;;;5.70;95.90;;;;;;5042501;28;20040;-85
2023/01/30 06:57:34;;;;;;;30.98;6.10;;;5.70;95.80;;;;;;5058381;28;20141;-79
2023/01/30 07:00:00;;;;;;;40.42;7.05;;;5.70;95.70;;;;;;5060602;28;20119;-79
2023/01/30 07:02:29;;;;;;;45.20;9.85;;;5.70;95.70;;;;;;5054967;28;20127;-80
2023/01/30 07:04:55;;;;;;;36.13;6.57;;;5.70;95.60;;;;;;5060637;28;20121;-79
2023/01/30 07:07:20;;;;;;;29.27;5.60;;;5.70;95.50;;;;;;5059144;28;20066;-79
2023/01/30 07:09:46;;;;;;;35.35;6.00;;;5.80;95.30;;;;;;5060426;28;20149;-82
2023/01/30 07:12:11;;;;;;;32.25;5.13;;;5.80;95.30;;;;;;5059024;28;20490;-80
2023/01/30 07:14:37;;;;;;;32.80;5.10;;;5.80;95.20;;;;;;5056665;28;20080;-82
2023/01/30 07:17:02;;;;;;;37.97;5.65;;;5.90;95.00;;;;;;5058483;28;20071;-80
2023/01/30 07:19:28;;;;;;;37.35;5.60;;;6.00;94.90;;;;;;5060022;28;20036;-81
2023/01/30 07:21:53;;;;;;;30.17;5.50;;;5.90;94.90;;;;;;5043339;28;20049;-81
2023/01/30 07:24:19;;;;;;;48.17;6.70;;;5.90;94.90;;;;;;5060992;28;20044;-85
2023/01/30 07:26:47;;;;;;;33.88;5.78;;;6.00;94.90;;;;;;5058873;28;20048;-84
2023/01/30 07:29:12;;;;;;;37.53;5.47;;;6.00;94.70;;;;;;5053904;28;20568;-79
2023/01/30 07:31:38;;;;;;;36.58;5.30;;;6.00;94.80;;;;;;5040452;28;20037;-79
2023/01/30 07:34:03;;;;;;;30.15;5.57;;;6.00;94.70;;;;;;5059180;28;20044;-82
2023/01/30 07:36:32;;;;;;;36.83;5.78;;;6.00;94.60;;;;;;5059228;28;20053;-81
2023/01/30 07:38:58;;;;;;;32.72;5.28;;;6.00;94.60;;;;;;5056279;28;20500;-81
2023/01/30 07:41:24;;;;;;;35.03;5.20;;;6.00;94.60;;;;;;5053899;28;20024;-80
2023/01/30 07:43:49;;;;;;;38.88;5.70;;;6.10;94.50;;;;;;5056190;28;20051;-80
2023/01/30 07:46:15;;;;;;;33.50;5.63;;;6.00;94.60;;;;;;5054262;28;20082;-80
2023/01/30 07:48:44;;;;;;;35.85;6.47;;;6.00;94.50;;;;;;5057271;28;20119;-80
2023/01/30 07:51:09;;;;;;;32.75;5.00;;;6.10;94.60;;;;;;5054407;28;20040;-79
2023/01/30 07:53:35;;;;;;;41.10;6.15;;;6.10;94.50;;;;;;5056241;28;20042;-79
2023/01/30 07:56:07;;;;;;;30.92;5.43;;;6.10;94.40;;;;;;5054152;28;20590;-79
2023/01/30 07:58:32;;;;;;;38.25;7.60;;;6.10;94.40;;;;;;5058769;28;20080;-80
2023/01/30 08:00:58;;;;;;;37.53;9.23;;;6.10;94.50;;;;;;5061992;28;20467;-80
2023/01/30 08:03:27;;;;;;;39.08;6.10;;;6.20;94.40;;;;;;5057605;28;20052;-80
2023/01/30 08:05:53;;;;;;;39.85;6.30;;;6.10;94.50;;;;;;5064865;28;20048;-79
2023/01/30 08:08:19;;;;;;;34.58;5.45;;;6.10;94.60;;;;;;5069196;28;20082;-78
2023/01/30 08:10:47;;;;;;;41.72;5.18;;;6.20;94.50;;;;;;5073631;28;20041;-79
2023/01/30 08:13:13;;;;;;;33.20;5.40;;;6.10;94.40;;;;;;5060623;28;20507;-79
2023/01/30 08:15:38;;;;;;;35.45;4.97;;;6.20;94.20;;;;;;5057143;28;20041;-80
2023/01/30 08:18:06;;;;;;;34.33;5.20;;;6.30;94.10;;;;;;5059045;28;20767;-84
2023/01/30 08:20:32;;;;;;;34.17;5.70;;;6.30;94.20;;;;;;5058981;28;20032;-79
2023/01/30 08:22:58;;;;;;;33.90;5.60;;;6.30;94.20;;;;;;5057362;28;20051;-83
2023/01/30 08:25:24;;;;;;;35.10;5.82;;;6.30;94.00;;;;;;5054342;28;20484;-80
2023/01/30 08:27:50;;;;;;;33.70;5.32;;;6.30;94.00;;;;;;5057654;28;20043;-80
2023/01/30 08:30:17;;;;;;;37.67;6.43;;;6.30;93.70;;;;;;5039946;28;20045;-83
2023/01/30 08:32:43;;;;;;;33.55;5.05;;;6.40;93.70;;;;;;5055509;28;20048;-79
2023/01/30 08:35:09;;;;;;;31.58;5.90;;;6.30;93.60;;;;;;5056456;28;20040;-79
2023/01/30 08:37:36;;;;;;;34.67;6.57;;;6.30;93.70;;;;;;5056179;28;20097;-80
2023/01/30 08:40:01;;;;;;;30.08;6.03;;;6.30;93.90;;;;;;5058333;28;20040;-79
2023/01/30 08:42:27;;;;;;;39.45;6.70;;;6.30;93.80;;;;;;5057028;28;20051;-80
2023/01/30 08:44:52;;;;;;;34.65;6.15;;;6.30;93.70;;;;;;5055480;28;20044;-80
2023/01/30 08:47:18;;;;;;;37.10;6.30;;;6.40;93.90;;;;;;5054452;28;20565;-79
2023/01/30 08:49:44;;;;;;;38.85;7.32;;;6.40;93.90;;;;;;5057371;28;20037;-81
2023/01/30 08:52:09;;;;;;;31.83;5.63;;;6.30;93.80;;;;;;5058282;28;20066;-80
2023/01/30 08:54:35;;;;;;;40.88;8.25;;;6.40;94.00;;;;;;5057036;28;20051;-81
2023/01/30 08:57:00;;;;;;;40.22;5.78;;;6.40;93.90;;;;;;5036248;28;20055;-81
2023/01/30 08:59:26;;;;;;;35.17;5.63;;;6.50;93.70;;;;;;5052826;28;20139;-80
2023/01/30 09:01:52;;;;;;;35.92;5.32;;;6.50;93.70;;;;;;5055984;28;20163;-80
2023/01/30 09:04:17;;;;;;;33.80;5.80;;;6.50;93.70;;;;;;5058094;28;20040;-81
2023/01/30 09:06:43;;;;;;;34.10;5.40;;;6.50;93.60;;;;;;5064256;28;20055;-79
2023/01/30 09:09:09;;;;;;;37.80;5.15;;;6.50;93.60;;;;;;5061016;28;20044;-81
2023/01/30 09:11:34;;;;;;;34.53;4.88;;;6.60;93.70;;;;;;5063245;28;20712;-80
2023/01/30 09:14:00;;;;;;;34.13;5.57;;;6.70;93.50;;;;;;5055851;28;20649;-81
2023/01/30 09:16:25;;;;;;;39.45;6.05;;;6.70;93.40;;;;;;5063316;28;20043;-79
2023/01/30 09:18:51;;;;;;;34.17;5.82;;;6.90;93.40;;;;;;5059907;28;20560;-79
2023/01/30 09:21:16;;;;;;;34.20;5.15;;;6.80;93.30;;;;;;5057683;28;20064;-79
2023/01/30 09:23:42;;;;;;;29.38;5.38;;;6.90;93.20;;;;;;5060635;28;20106;-81
2023/01/30 09:26:08;;;;;;;30.85;5.28;;;6.90;93.10;;;;;;5056791;28;20060;-78
2023/01/30 09:28:34;;;;;;;33.38;4.72;;;6.90;92.90;;;;;;5063709;28;20396;-78
2023/01/30 09:31:00;;;;;;;33.17;5.43;;;7.00;93.00;;;;;;5059262;28;20507;-77
2023/01/30 09:33:26;;;;;;;29.95;5.28;;;7.00;92.80;;;;;;5063242;28;20036;-77
2023/01/30 09:35:52;;;;;;;41.00;5.30;;;7.00;92.70;;;;;;5058702;28;20041;-77
2023/01/30 09:38:18;;;;;;;39.88;5.55;;;6.90;92.70;;;;;;5062284;28;20060;-76
2023/01/30 09:40:54;;;;;;;30.60;5.30;;;7.00;92.80;;;;;;5060009;28;20506;-77
2023/01/30 09:43:34;;;;;;;32.70;4.97;;;7.00;92.70;;;;;;5061315;28;20043;-77
2023/01/30 09:46:59;;;;;;;37.17;5.18;;;7.10;92.50;;;;;;5056858;28;20112;-77
2023/01/30 09:49:50;;;;;;;39.72;6.60;;;7.10;92.80;;;;;;4972825;28;20101;-78
2023/01/30 09:52:28;;;;;;;36.47;5.63;;;7.00;93.40;;;;;;4974968;28;20135;-78
2023/01/30 09:55:21;;;;;;;38.40;5.80;;;6.80;93.80;;;;;;5047855;28;20177;-78
2023/01/30 09:57:47;;;;;;;45.45;6.05;;;6.60;94.50;;;;;;5055959;28;20132;-78
2023/01/30 10:00:27;;;;;;;47.83;5.95;;;6.40;94.80;;;;;;5039485;28;20102;-80
2023/01/30 10:03:07;;;;;;;45.45;6.35;;;6.10;95.80;;;;;;5039893;28;20836;-78
2023/01/30 10:05:55;;;;;;;38.85;6.05;;;5.90;96.40;;;;;;5053048;28;20052;-79
2023/01/30 10:08:44;;;;;;;37.88;6.32;;;5.90;96.50;;;;;;5040078;28;20084;-78
2023/01/30 10:11:46;;;;;;;43.70;6.25;;;6.00;96.20;;;;;;5055340;28;20056;-76
2023/01/30 10:14:35;;;;;;;35.85;5.78;;;6.10;96.40;;;;;;5053789;28;20049;-76
2023/01/30 10:17:06;;;;;;;37.97;6.13;;;6.10;96.00;;;;;;5057861;28;20044;-77
2023/01/30 10:19:40;;;;;;;34.80;5.30;;;6.20;95.90;;;;;;5038440;28;20044;-76
2023/01/30 10:22:31;;;;;;;40.70;6.57;;;6.30;95.80;;;;;;5054994;28;20055;-76
2023/01/30 10:25:20;;;;;;;34.85;5.60;;;6.40;95.30;;;;;;5055668;28;20049;-76
2023/01/30 10:27:58;;;;;;;;;;;6.50;95.40;;;;;;5044131;28;20053;-77
2023/01/30 10:30:24;;;;;;;38.15;5.50;;;6.60;95.20;;;;;;5055557;28;19921;-77
2023/01/30 10:32:56;;;;;;;35.80;6.70;;;6.70;94.80;;;;;;5058201;28;20039;-77
2023/01/30 10:35:28;;;;;;;45.25;5.68;;;6.80;94.90;;;;;;5053688;28;20049;-78
2023/01/30 10:38:13;;;;;;;44.05;6.68;;;6.90;94.50;;;;;;5056475;28;20048;-76
2023/01/30 10:40:45;;;;;;;46.33;6.35;;;6.80;94.70;;;;;;5059057;28;20520;-77
2023/01/30 10:43:36;;;;;;;27.33;5.20;;;6.60;94.60;;;;;;5057559;28;20174;-78
2023/01/30 10:46:40;;;;;;;30.05;5.50;;;6.50;94.40;;;;;;5057430;28;20583;-78
2023/01/30 10:49:16;;;;;;;20.40;3.00;;;6.20;95.30;;;;;;5054689;28;20040;-78
2023/01/30 10:51:57;;;;;;;11.60;2.17;;;5.80;95.40;;;;;;5056978;28;20558;-80
2023/01/30 10:54:45;;;;;;;11.38;1.50;;;5.60;95.90;;;;;;5052978;28;20695;-78
2023/01/30 10:57:23;;;;;;;8.07;1.52;;;5.40;96.00;;;;;;5055988;28;20097;-78
2023/01/30 10:59:52;;;;;;;11.00;2.33;;;5.20;96.20;;;;;;5038444;28;20033;-78
2023/01/30 11:02:44;;;;;;;10.93;2.35;;;5.10;96.30;;;;;;5054884;28;20053;-77
2023/01/30 11:05:15;;;;;;;13.40;2.38;;;5.20;96.40;;;;;;5053863;28;20556;-79
2023/01/30 11:07:42;;;;;;;15.40;2.45;;;5.40;96.50;;;;;;5051070;28;20055;-81
2023/01/30 11:10:26;;;;;;;17.73;3.33;;;5.50;96.20;;;;;;5053411;28;20098;-77
2023/01/30 11:12:57;;;;;;;14.23;3.20;;;5.70;96.20;;;;;;5054567;28;20037;-79
2023/01/30 11:15:24;;;;;;;21.55;3.47;;;5.80;96.10;;;;;;5053741;28;20052;-78
2023/01/30 11:17:50;;;;;;;15.07;3.22;;;5.90;95.80;;;;;;5056401;28;20189;-82
2023/01/30 11:20:19;;;;;;;23.77;3.58;;;6.10;95.60;;;;;;5054884;28;20492;-81
2023/01/30 11:22:49;;;;;;;;;;;6.10;95.60;;;;;;5056647;28;20031;-77
2023/01/30 11:25:21;;;;;;;21.40;3.70;;;6.20;95.00;;;;;;5055630;28;19927;-79
2023/01/30 11:27:54;;;;;;;21.63;3.47;;;6.30;95.00;;;;;;5038266;28;20044;-78
2023/01/30 11:30:21;;;;;;;26.17;4.30;;;6.50;94.80;;;;;;5054660;28;20037;-78
2023/01/30 11:32:48;;;;;;;27.20;4.22;;;6.60;94.40;;;;;;5051139;28;20028;-81
2023/01/30 11:35:13;;;;;;;20.83;3.63;;;6.70;94.00;;;;;;5059249;28;20032;-82
2023/01/30 11:37:41;;;;;;;19.05;3.40;;;6.70;93.90;;;;;;5057386;28;20098;-78
2023/01/30 11:40:16;;;;;;;25.27;3.93;;;6.80;93.60;;;;;;5057324;28;20029;-77
2023/01/30 11:42:47;;;;;;;26.02;3.58;;;6.90;93.30;;;;;;5042940;28;21940;-78
2023/01/30 11:45:13;;;;;;;15.13;2.63;;;6.90;92.70;;;;;;5057797;28;20552;-77
2023/01/30 11:47:50;;;;;;;22.38;3.80;;;6.90;92.50;;;;;;5060488;28;20048;-77
2023/01/30 11:50:17;;;;;;;17.83;3.30;;;6.90;92.00;;;;;;5057472;28;20495;-80
2023/01/30 11:52:45;;;;;;;21.20;3.58;;;7.00;92.30;;;;;;5059324;28;20451;-77
2023/01/30 11:55:16;;;;;;;25.55;3.40;;;7.00;91.80;;;;;;5058923;28;20122;-76
2023/01/30 11:57:49;;;;;;;19.88;3.35;;;7.00;91.80;;;;;;5071498;28;20047;-79
2023/01/30 12:00:17;;;;;;;16.63;3.17;;;7.00;91.80;;;;;;5042501;28;20080;-77
2023/01/30 12:02:45;;;;;;;18.67;3.67;;;7.10;91.70;;;;;;5060394;28;20044;-78
2023/01/30 12:05:29;;;;;;;14.82;2.88;;;7.10;91.50;;;;;;5059941;28;20044;-77
2023/01/30 12:08:18;;;;;;;17.08;2.80;;;7.10;91.00;;;;;;5059659;28;20056;-76
2023/01/30 12:10:47;;;;;;;18.50;2.92;;;7.10;90.80;;;;;;5057931;28;20140;-78
2023/01/30 12:13:37;;;;;;;17.00;2.85;;;7.00;90.90;;;;;;5058556;28;20051;-75
2023/01/30 12:16:09;;;;;;;20.95;2.97;;;7.00;91.10;;;;;;5072606;28;20072;-77
2023/01/30 12:18:52;;;;;;;19.70;3.20;;;7.00;91.20;;;;;;5062025;28;20141;-76
2023/01/30 12:21:57;;;;;;;21.42;3.72;;;7.00;91.30;;;;;;5040311;28;20066;-76
2023/01/30 12:24:45;;;;;;;22.67;3.25;;;7.00;91.10;;;;;;5060025;28;20094;-77
2023/01/30 12:27:32;;;;;;;22.85;3.75;;;6.90;91.20;;;;;;5058461;28;20044;-77
2023/01/30 12:30:28;;;;;;;22.67;3.88;;;6.90;91.10;;;;;;5058890;28;20507;-77
2023/01/30 12:32:59;;;;;;;26.45;4.35;;;7.00;91.60;;;;;;5057481;28;20044;-79
2023/01/30 12:35:39;;;;;;;21.35;3.78;;;7.10;91.50;;;;;;5058326;28;20671;-77
2023/01/30 12:38:50;;;;;;;24.95;4.07;;;7.30;91.50;;;;;;5058431;28;20036;-76
2023/01/30 12:41:34;;;;;;;25.70;4.30;;;7.30;91.40;;;;;;4959889;28;20086;-76
2023/01/30 12:44:18;;;;;;;25.10;4.07;;;7.40;91.30;;;;;;4961023;28;20054;-77
2023/01/30 12:47:08;;;;;;;31.77;5.03;;;7.40;91.10;;;;;;5025249;28;20435;-77
2023/01/30 12:49:52;;;;;;;30.20;5.15;;;7.50;91.20;;;;;;5041677;28;20075;-77
2023/01/30 12:52:43;;;;;;;21.98;4.20;;;7.60;91.10;;;;;;5057236;28;20198;-76
2023/01/30 12:55:22;;;;;;;22.88;4.22;;;7.60;90.70;;;;;;5057770;28;20082;-76
2023/01/30 12:58:20;;;;;;;31.15;5.30;;;7.50;91.20;;;;;;5056747;28;20056;-75
2023/01/30 13:00:49;;;;;;;;;;;7.50;91.30;;;;;;5041555;28;20041;-76
2023/01/30 13:03:21;;;;;;;19.38;4.30;;;7.50;90.90;;;;;;5060405;28;20283;-76
2023/01/30 13:06:06;;;;;;;29.38;4.20;;;7.50;91.10;;;;;;5058247;28;20072;-76
2023/01/30 13:08:39;;;;;;;26.55;4.20;;;7.50;91.10;;;;;;5055551;28;20135;-78
2023/01/30 13:11:27;;;;;;;31.35;4.55;;;7.50;90.90;;;;;;5056981;28;20040;-81
2023/01/30 13:14:12;;;;;;;23.10;4.00;;;7.60;91.20;;;;;;5040619;28;20562;-80